sensor_id;sensor_type;location;lat;lon;timestamp;pressure;altitude;pressure_sealevel;temperature;humidity
77247;BME280;66279;42.820;23.374;2023-11-22T00:01:03;95038.72;;;12.21;64.61
77247;BME280;66279;42.820;23.374;2023-11-22T00:03:28;95033.84;;;12.41;64.30
77247;BME280;66279;42.820;23.374;2023-11-22T00:05:54;95036.66;;;12.11;65.10
77247;BME280;66279;42.820;23.374;2023-11-22T00:08:19;95038.16;;;12.07;65.47
77247;BME280;66279;42.820;23.374;2023-11-22T00:10:45;95029.28;;;12.13;65.04
77247;BME280;66279;42.820;23.374;2023-11-22T00:13:10;95023.25;;;12.18;64.79
77247;BME280;66279;42.820;23.374;2023-11-22T00:15:37;95034.78;;;12.24;64.62
77247;BME280;66279;42.820;23.374;2023-11-22T00:18:02;95023.50;;;12.16;64.80
77247;BME280;66279;42.820;23.374;2023-11-22T00:20:29;95026.03;;;12.11;65.13
77247;BME280;66279;42.820;23.374;2023-11-22T00:22:55;95024.66;;;12.09;65.40
77247;BME280;66279;42.820;23.374;2023-11-22T00:25:20;95019.97;;;12.51;63.20
77247;BME280;66279;42.820;23.374;2023-11-22T00:27:46;95022.31;;;12.36;64.12
77247;BME280;66279;42.820;23.374;2023-11-22T00:30:12;95015.34;;;12.47;63.64
77247;BME280;66279;42.820;23.374;2023-11-22T00:32:38;95019.03;;;12.57;63.17
77247;BME280;66279;42.820;23.374;2023-11-22T00:35:06;95014.44;;;12.41;63.83
77247;BME280;66279;42.820;23.374;2023-11-22T00:37:33;95022.41;;;12.41;64.05
77247;BME280;66279;42.820;23.374;2023-11-22T00:40:00;95018.56;;;12.60;63.67
77247;BME280;66279;42.820;23.374;2023-11-22T00:42:26;95008.56;;;12.39;64.22
77247;BME280;66279;42.820;23.374;2023-11-22T00:44:52;94996.88;;;12.40;63.96
77247;BME280;66279;42.820;23.374;2023-11-22T00:47:18;95022.03;;;12.49;63.87
77247;BME280;66279;42.820;23.374;2023-11-22T00:49:44;95018.81;;;12.47;63.59
77247;BME280;66279;42.820;23.374;2023-11-22T00:52:09;95039.59;;;12.50;63.67
77247;BME280;66279;42.820;23.374;2023-11-22T00:54:35;95044.47;;;12.41;64.25
77247;BME280;66279;42.820;23.374;2023-11-22T00:57:00;95043.22;;;12.73;62.87
77247;BME280;66279;42.820;23.374;2023-11-22T00:59:26;95034.97;;;12.86;62.23
77247;BME280;66279;42.820;23.374;2023-11-22T01:01:52;95031.53;;;12.45;64.06
77247;BME280;66279;42.820;23.374;2023-11-22T01:04:17;95020.34;;;12.31;64.30
77247;BME280;66279;42.820;23.374;2023-11-22T01:06:43;95009.63;;;12.38;64.43
77247;BME280;66279;42.820;23.374;2023-11-22T01:09:08;94998.16;;;12.37;63.94
77247;BME280;66279;42.820;23.374;2023-11-22T01:11:34;94990.25;;;12.26;64.54
77247;BME280;66279;42.820;23.374;2023-11-22T01:14:00;94996.88;;;12.40;64.41
77247;BME280;66279;42.820;23.374;2023-11-22T01:16:25;94989.19;;;12.38;64.23
77247;BME280;66279;42.820;23.374;2023-11-22T01:18:51;94991.16;;;12.72;62.88
77247;BME280;66279;42.820;23.374;2023-11-22T01:21:18;94995.56;;;12.66;63.34
77247;BME280;66279;42.820;23.374;2023-11-22T01:23:44;94990.50;;;12.53;63.80
77247;BME280;66279;42.820;23.374;2023-11-22T01:26:11;94997.91;;;12.51;63.99
77247;BME280;66279;42.820;23.374;2023-11-22T01:28:36;94991.91;;;12.43;64.34
77247;BME280;66279;42.820;23.374;2023-11-22T01:31:02;94995.47;;;12.49;64.07
77247;BME280;66279;42.820;23.374;2023-11-22T01:33:28;94983.72;;;12.45;64.43
77247;BME280;66279;42.820;23.374;2023-11-22T01:35:54;94967.03;;;12.33;64.91
77247;BME280;66279;42.820;23.374;2023-11-22T01:38:20;94977.69;;;12.09;65.64
77247;BME280;66279;42.820;23.374;2023-11-22T01:40:48;94971.81;;;11.84;66.69
77247;BME280;66279;42.820;23.374;2023-11-22T01:43:20;94951.78;;;11.64;67.02
77247;BME280;66279;42.820;23.374;2023-11-22T01:45:46;94968.94;;;11.85;66.72
77247;BME280;66279;42.820;23.374;2023-11-22T01:48:12;94954.50;;;11.81;66.53
77247;BME280;66279;42.820;23.374;2023-11-22T01:50:38;94967.56;;;11.59;67.49
77247;BME280;66279;42.820;23.374;2023-11-22T01:53:05;94959.03;;;11.69;67.52
77247;BME280;66279;42.820;23.374;2023-11-22T01:55:31;94957.41;;;11.56;67.82
77247;BME280;66279;42.820;23.374;2023-11-22T01:57:57;94960.53;;;11.77;67.30
77247;BME280;66279;42.820;23.374;2023-11-22T02:00:24;94962.59;;;11.51;67.77
77247;BME280;66279;42.820;23.374;2023-11-22T02:02:51;94966.16;;;11.57;67.88
77247;BME280;66279;42.820;23.374;2023-11-22T02:05:17;94960.41;;;11.48;68.17
77247;BME280;66279;42.820;23.374;2023-11-22T02:07:43;94964.34;;;11.45;68.25
77247;BME280;66279;42.820;23.374;2023-11-22T02:10:08;94969.38;;;11.35;68.80
77247;BME280;66279;42.820;23.374;2023-11-22T02:12:35;94967.53;;;11.24;69.32
77247;BME280;66279;42.820;23.374;2023-11-22T02:15:01;94954.75;;;11.33;68.75
77247;BME280;66279;42.820;23.374;2023-11-22T02:17:28;94967.88;;;11.27;68.92
77247;BME280;66279;42.820;23.374;2023-11-22T02:19:54;94952.34;;;11.43;68.52
77247;BME280;66279;42.820;23.374;2023-11-22T02:22:20;94954.06;;;11.49;68.23
77247;BME280;66279;42.820;23.374;2023-11-22T02:24:45;94941.97;;;11.41;68.30
77247;BME280;66279;42.820;23.374;2023-11-22T02:27:10;94944.03;;;11.16;69.31
77247;BME280;66279;42.820;23.374;2023-11-22T02:29:36;94942.94;;;10.93;70.18
77247;BME280;66279;42.820;23.374;2023-11-22T02:32:01;94931.41;;;10.88;70.57
77247;BME280;66279;42.820;23.374;2023-11-22T02:34:27;94944.09;;;10.97;70.40
77247;BME280;66279;42.820;23.374;2023-11-22T02:36:52;94945.59;;;10.93;70.13
77247;BME280;66279;42.820;23.374;2023-11-22T02:39:18;94944.31;;;10.96;70.32
77247;BME280;66279;42.820;23.374;2023-11-22T02:41:44;94954.00;;;10.90;70.54
77247;BME280;66279;42.820;23.374;2023-11-22T02:44:10;94958.97;;;11.10;69.62
77247;BME280;66279;42.820;23.374;2023-11-22T02:46:36;94955.03;;;11.01;69.81
77247;BME280;66279;42.820;23.374;2023-11-22T02:49:01;94960.47;;;11.06;69.70
77247;BME280;66279;42.820;23.374;2023-11-22T02:51:26;94965.31;;;11.09;69.46
77247;BME280;66279;42.820;23.374;2023-11-22T02:53:53;94956.50;;;10.85;70.80
77247;BME280;66279;42.820;23.374;2023-11-22T02:56:19;94961.16;;;11.01;70.25
77247;BME280;66279;42.820;23.374;2023-11-22T02:58:44;94958.03;;;11.04;69.68
77247;BME280;66279;42.820;23.374;2023-11-22T03:01:11;94965.88;;;10.99;69.89
77247;BME280;66279;42.820;23.374;2023-11-22T03:03:36;94966.50;;;10.83;70.72
77247;BME280;66279;42.820;23.374;2023-11-22T03:06:01;94944.53;;;10.82;69.92
77247;BME280;66279;42.820;23.374;2023-11-22T03:08:27;94960.09;;;10.91;70.23
77247;BME280;66279;42.820;23.374;2023-11-22T03:10:53;94957.88;;;10.76;70.74
77247;BME280;66279;42.820;23.374;2023-11-22T03:13:19;94949.47;;;10.79;70.47
77247;BME280;66279;42.820;23.374;2023-11-22T03:15:44;94951.09;;;10.92;69.99
77247;BME280;66279;42.820;23.374;2023-11-22T03:18:10;94941.22;;;10.87;70.21
77247;BME280;66279;42.820;23.374;2023-11-22T03:20:36;94945.00;;;10.91;70.06
77247;BME280;66279;42.820;23.374;2023-11-22T03:23:02;94942.22;;;10.86;70.35
77247;BME280;66279;42.820;23.374;2023-11-22T03:25:28;94950.72;;;10.76;70.69
77247;BME280;66279;42.820;23.374;2023-11-22T03:27:54;94940.38;;;10.75;70.31
77247;BME280;66279;42.820;23.374;2023-11-22T03:30:19;94954.38;;;10.64;71.20
77247;BME280;66279;42.820;23.374;2023-11-22T03:32:45;94947.72;;;10.73;70.76
77247;BME280;66279;42.820;23.374;2023-11-22T03:35:11;94969.16;;;10.53;71.59
77247;BME280;66279;42.820;23.374;2023-11-22T03:37:37;94968.59;;;10.51;71.32
77247;BME280;66279;42.820;23.374;2023-11-22T03:40:03;94988.09;;;10.68;70.91
77247;BME280;66279;42.820;23.374;2023-11-22T03:42:28;94982.59;;;10.70;71.04
77247;BME280;66279;42.820;23.374;2023-11-22T03:44:54;94973.16;;;10.74;70.68
77247;BME280;66279;42.820;23.374;2023-11-22T03:47:20;94975.72;;;10.80;70.60
77247;BME280;66279;42.820;23.374;2023-11-22T03:49:45;94979.00;;;10.64;70.96
77247;BME280;66279;42.820;23.374;2023-11-22T03:52:11;94980.84;;;10.64;71.21
77247;BME280;66279;42.820;23.374;2023-11-22T03:54:37;94978.34;;;10.69;70.94
77247;BME280;66279;42.820;23.374;2023-11-22T03:57:03;94965.09;;;10.69;71.07
77247;BME280;66279;42.820;23.374;2023-11-22T03:59:29;94975.53;;;10.64;70.85
77247;BME280;66279;42.820;23.374;2023-11-22T04:01:54;94971.31;;;10.74;70.73
77247;BME280;66279;42.820;23.374;2023-11-22T04:04:20;94965.09;;;10.69;70.72
77247;BME280;66279;42.820;23.374;2023-11-22T04:06:45;94961.16;;;10.71;70.80
77247;BME280;66279;42.820;23.374;2023-11-22T04:09:11;94969.75;;;10.55;71.34
77247;BME280;66279;42.820;23.374;2023-11-22T04:11:38;94951.41;;;10.42;71.36
77247;BME280;66279;42.820;23.374;2023-11-22T04:14:04;94971.28;;;10.63;70.91
77247;BME280;66279;42.820;23.374;2023-11-22T04:16:29;94984.03;;;10.54;71.52
77247;BME280;66279;42.820;23.374;2023-11-22T04:18:54;94988.34;;;10.67;70.93
77247;BME280;66279;42.820;23.374;2023-11-22T04:21:20;94981.16;;;10.55;71.15
77247;BME280;66279;42.820;23.374;2023-11-22T04:23:45;94993.13;;;10.58;71.26
77247;BME280;66279;42.820;23.374;2023-11-22T04:26:11;94999.59;;;10.62;71.15
77247;BME280;66279;42.820;23.374;2023-11-22T04:28:36;94999.56;;;10.50;71.54
77247;BME280;66279;42.820;23.374;2023-11-22T04:31:01;95009.59;;;10.60;71.41
77247;BME280;66279;42.820;23.374;2023-11-22T04:33:27;95003.97;;;10.56;71.33
77247;BME280;66279;42.820;23.374;2023-11-22T04:35:55;95004.69;;;10.45;71.95
77247;BME280;66279;42.820;23.374;2023-11-22T04:38:21;95012.63;;;10.45;71.92
77247;BME280;66279;42.820;23.374;2023-11-22T04:40:46;95019.25;;;10.54;71.26
77247;BME280;66279;42.820;23.374;2023-11-22T04:43:13;95023.28;;;10.57;71.15
77247;BME280;66279;42.820;23.374;2023-11-22T04:45:38;95031.28;;;10.69;70.55
77247;BME280;66279;42.820;23.374;2023-11-22T04:48:04;95029.09;;;10.66;70.82
77247;BME280;66279;42.820;23.374;2023-11-22T04:50:30;95030.91;;;10.65;70.84
77247;BME280;66279;42.820;23.374;2023-11-22T04:52:56;95037.09;;;10.59;70.98
77247;BME280;66279;42.820;23.374;2023-11-22T04:55:21;95041.28;;;10.67;70.81
77247;BME280;66279;42.820;23.374;2023-11-22T04:57:50;95038.72;;;10.60;70.97
77247;BME280;66279;42.820;23.374;2023-11-22T05:00:16;95042.69;;;10.69;70.69
77247;BME280;66279;42.820;23.374;2023-11-22T05:02:42;95040.41;;;10.54;71.06
77247;BME280;66279;42.820;23.374;2023-11-22T05:05:08;95033.75;;;10.33;71.71
77247;BME280;66279;42.820;23.374;2023-11-22T05:07:37;95059.59;;;10.50;71.34
77247;BME280;66279;42.820;23.374;2023-11-22T05:10:03;95067.03;;;10.59;71.30
77247;BME280;66279;42.820;23.374;2023-11-22T05:12:29;95071.31;;;10.42;71.63
77247;BME280;66279;42.820;23.374;2023-11-22T05:14:55;95080.72;;;10.38;72.04
77247;BME280;66279;42.820;23.374;2023-11-22T05:17:20;95079.31;;;10.54;71.62
77247;BME280;66279;42.820;23.374;2023-11-22T05:19:46;95082.09;;;10.59;71.19
77247;BME280;66279;42.820;23.374;2023-11-22T05:22:11;95085.50;;;10.48;71.59
77247;BME280;66279;42.820;23.374;2023-11-22T05:24:36;95082.03;;;10.47;71.62
77247;BME280;66279;42.820;23.374;2023-11-22T05:27:06;95089.91;;;10.35;72.10
77247;BME280;66279;42.820;23.374;2023-11-22T05:29:32;95092.03;;;10.45;71.65
77247;BME280;66279;42.820;23.374;2023-11-22T05:31:59;95096.16;;;10.41;71.69
77247;BME280;66279;42.820;23.374;2023-11-22T05:34:24;95102.09;;;10.55;71.24
77247;BME280;66279;42.820;23.374;2023-11-22T05:36:50;95094.09;;;10.62;71.01
77247;BME280;66279;42.820;23.374;2023-11-22T05:39:15;95105.19;;;10.33;72.38
77247;BME280;66279;42.820;23.374;2023-11-22T05:41:43;95104.38;;;10.33;72.26
77247;BME280;66279;42.820;23.374;2023-11-22T05:44:08;95083.59;;;10.11;72.85
77247;BME280;66279;42.820;23.374;2023-11-22T05:46:34;95100.28;;;10.12;73.34
77247;BME280;66279;42.820;23.374;2023-11-22T05:48:59;95117.34;;;10.16;73.10
77247;BME280;66279;42.820;23.374;2023-11-22T05:51:26;95125.19;;;10.29;72.54
77247;BME280;66279;42.820;23.374;2023-11-22T05:53:51;95128.88;;;10.47;71.72
77247;BME280;66279;42.820;23.374;2023-11-22T05:56:17;95137.63;;;10.47;71.46
77247;BME280;66279;42.820;23.374;2023-11-22T05:58:42;95143.38;;;10.19;72.74
77247;BME280;66279;42.820;23.374;2023-11-22T06:01:08;95145.25;;;10.37;72.44
77247;BME280;66279;42.820;23.374;2023-11-22T06:03:35;95147.03;;;10.18;72.81
77247;BME280;66279;42.820;23.374;2023-11-22T06:06:01;95147.69;;;10.13;73.30
77247;BME280;66279;42.820;23.374;2023-11-22T06:08:28;95166.47;;;10.30;72.59
77247;BME280;66279;42.820;23.374;2023-11-22T06:10:53;95157.47;;;10.13;73.34
77247;BME280;66279;42.820;23.374;2023-11-22T06:13:22;95159.81;;;10.21;72.92
77247;BME280;66279;42.820;23.374;2023-11-22T06:15:47;95159.78;;;10.28;72.82
77247;BME280;66279;42.820;23.374;2023-11-22T06:18:12;95153.28;;;10.24;72.74
77247;BME280;66279;42.820;23.374;2023-11-22T06:20:39;95155.53;;;10.27;72.90
77247;BME280;66279;42.820;23.374;2023-11-22T06:23:05;95148.28;;;10.41;69.35
77247;BME280;66279;42.820;23.374;2023-11-22T06:25:30;95157.31;;;10.51;69.67
77247;BME280;66279;42.820;23.374;2023-11-22T06:27:55;95158.06;;;10.58;69.66
77247;BME280;66279;42.820;23.374;2023-11-22T06:30:21;95168.72;;;10.70;69.10
77247;BME280;66279;42.820;23.374;2023-11-22T06:32:46;95168.00;;;10.81;68.93
77247;BME280;66279;42.820;23.374;2023-11-22T06:35:11;95164.16;;;10.77;68.69
77247;BME280;66279;42.820;23.374;2023-11-22T06:37:40;95123.50;;;10.72;67.98
77247;BME280;66279;42.820;23.374;2023-11-22T06:40:06;95169.47;;;10.77;68.84
77247;BME280;66279;42.820;23.374;2023-11-22T06:42:32;95175.78;;;10.58;68.24
77247;BME280;66279;42.820;23.374;2023-11-22T06:44:58;95158.34;;;12.90;60.18
77247;BME280;66279;42.820;23.374;2023-11-22T06:47:26;95187.44;;;12.14;62.96
77247;BME280;66279;42.820;23.374;2023-11-22T06:49:52;95193.16;;;11.58;68.63
77247;BME280;66279;42.820;23.374;2023-11-22T06:52:18;95203.06;;;11.32;71.01
77247;BME280;66279;42.820;23.374;2023-11-22T06:54:44;95188.53;;;10.86;72.92
77247;BME280;66279;42.820;23.374;2023-11-22T06:57:09;95174.38;;;10.55;74.13
77247;BME280;66279;42.820;23.374;2023-11-22T06:59:35;95185.19;;;10.54;75.28
77247;BME280;66279;42.820;23.374;2023-11-22T07:02:00;95184.09;;;10.62;75.99
77247;BME280;66279;42.820;23.374;2023-11-22T07:04:25;95188.81;;;10.59;76.75
77247;BME280;66279;42.820;23.374;2023-11-22T07:06:51;95197.41;;;10.55;77.73
77247;BME280;66279;42.820;23.374;2023-11-22T07:09:16;95200.53;;;10.45;78.72
77247;BME280;66279;42.820;23.374;2023-11-22T07:11:42;95199.88;;;10.50;79.06
77247;BME280;66279;42.820;23.374;2023-11-22T07:14:09;95204.53;;;10.54;78.33
77247;BME280;66279;42.820;23.374;2023-11-22T07:16:35;95211.75;;;10.47;78.20
77247;BME280;66279;42.820;23.374;2023-11-22T07:19:00;95225.16;;;10.46;77.65
77247;BME280;66279;42.820;23.374;2023-11-22T07:21:31;95220.13;;;10.44;77.84
77247;BME280;66279;42.820;23.374;2023-11-22T07:23:56;95214.66;;;10.39;77.92
77247;BME280;66279;42.820;23.374;2023-11-22T07:26:22;95218.88;;;10.47;77.91
77247;BME280;66279;42.820;23.374;2023-11-22T07:28:47;95222.03;;;10.30;78.69
77247;BME280;66279;42.820;23.374;2023-11-22T07:31:13;95217.91;;;10.41;78.10
77247;BME280;66279;42.820;23.374;2023-11-22T07:33:39;95219.78;;;10.34;78.64
77247;BME280;66279;42.820;23.374;2023-11-22T07:36:05;95222.31;;;10.47;77.81
77247;BME280;66279;42.820;23.374;2023-11-22T07:38:31;95232.00;;;10.35;78.12
77247;BME280;66279;42.820;23.374;2023-11-22T07:40:58;95225.91;;;10.53;77.48
77247;BME280;66279;42.820;23.374;2023-11-22T07:43:23;95230.84;;;10.49;77.73
77247;BME280;66279;42.820;23.374;2023-11-22T07:45:49;95231.13;;;10.41;77.88
77247;BME280;66279;42.820;23.374;2023-11-22T07:48:16;95232.19;;;10.33;78.21
77247;BME280;66279;42.820;23.374;2023-11-22T07:50:42;95237.00;;;10.43;77.80
77247;BME280;66279;42.820;23.374;2023-11-22T07:53:12;95218.22;;;10.26;78.29
77247;BME280;66279;42.820;23.374;2023-11-22T07:55:39;95243.75;;;10.39;78.21
77247;BME280;66279;42.820;23.374;2023-11-22T07:58:07;95247.75;;;10.48;77.44
77247;BME280;66279;42.820;23.374;2023-11-22T08:00:33;95240.78;;;10.54;77.49
77247;BME280;66279;42.820;23.374;2023-11-22T08:03:02;95245.44;;;10.33;78.25
77247;BME280;66279;42.820;23.374;2023-11-22T08:05:29;95246.47;;;10.32;78.07
77247;BME280;66279;42.820;23.374;2023-11-22T08:07:54;95260.88;;;10.36;78.25
77247;BME280;66279;42.820;23.374;2023-11-22T08:10:20;95258.16;;;10.43;77.67
77247;BME280;66279;42.820;23.374;2023-11-22T08:12:46;95259.88;;;10.38;78.02
77247;BME280;66279;42.820;23.374;2023-11-22T08:15:14;95258.59;;;10.40;77.55
77247;BME280;66279;42.820;23.374;2023-11-22T08:17:40;95260.31;;;10.34;78.08
77247;BME280;66279;42.820;23.374;2023-11-22T08:20:06;95256.19;;;10.39;78.02
77247;BME280;66279;42.820;23.374;2023-11-22T08:22:35;95254.72;;;10.43;77.88
77247;BME280;66279;42.820;23.374;2023-11-22T08:25:04;95258.09;;;10.31;78.24
77247;BME280;66279;42.820;23.374;2023-11-22T08:27:30;95244.72;;;10.20;78.84
77247;BME280;66279;42.820;23.374;2023-11-22T08:29:56;95247.44;;;10.38;77.73
77247;BME280;66279;42.820;23.374;2023-11-22T08:32:21;95248.69;;;10.35;78.44
77247;BME280;66279;42.820;23.374;2023-11-22T08:34:51;95243.81;;;10.32;78.26
77247;BME280;66279;42.820;23.374;2023-11-22T08:37:17;95252.13;;;10.36;78.29
77247;BME280;66279;42.820;23.374;2023-11-22T08:39:42;95256.94;;;10.46;77.94
77247;BME280;66279;42.820;23.374;2023-11-22T08:42:08;95264.50;;;10.42;78.10
77247;BME280;66279;42.820;23.374;2023-11-22T08:44:38;95262.88;;;10.41;78.14
77247;BME280;66279;42.820;23.374;2023-11-22T08:47:03;95263.09;;;10.40;78.03
77247;BME280;66279;42.820;23.374;2023-11-22T08:49:29;95271.75;;;10.22;79.07
77247;BME280;66279;42.820;23.374;2023-11-22T08:51:56;95273.97;;;10.31;78.40
77247;BME280;66279;42.820;23.374;2023-11-22T08:54:21;95281.03;;;10.38;78.06
77247;BME280;66279;42.820;23.374;2023-11-22T08:56:47;95279.41;;;10.36;78.46
77247;BME280;66279;42.820;23.374;2023-11-22T08:59:13;95283.88;;;10.36;78.04
77247;BME280;66279;42.820;23.374;2023-11-22T09:01:38;95290.41;;;10.33;78.49
77247;BME280;66279;42.820;23.374;2023-11-22T09:04:04;95292.72;;;10.23;79.09
77247;BME280;66279;42.820;23.374;2023-11-22T09:06:30;95295.44;;;10.42;77.94
77247;BME280;66279;42.820;23.374;2023-11-22T09:08:55;95284.50;;;10.38;78.51
77247;BME280;66279;42.820;23.374;2023-11-22T09:11:21;95274.72;;;10.39;77.90
77247;BME280;66279;42.820;23.374;2023-11-22T09:13:48;95290.72;;;10.50;77.65
77247;BME280;66279;42.820;23.374;2023-11-22T09:16:15;95288.19;;;10.30;78.31
77247;BME280;66279;42.820;23.374;2023-11-22T09:18:42;95294.91;;;10.33;78.49
77247;BME280;66279;42.820;23.374;2023-11-22T09:21:08;95291.50;;;10.51;78.08
77247;BME280;66279;42.820;23.374;2023-11-22T09:23:35;95290.25;;;10.22;78.97
77247;BME280;66279;42.820;23.374;2023-11-22T09:26:02;95285.34;;;10.32;78.17
77247;BME280;66279;42.820;23.374;2023-11-22T09:28:28;95291.44;;;10.32;78.11
77247;BME280;66279;42.820;23.374;2023-11-22T09:30:53;95299.28;;;10.46;77.85
77247;BME280;66279;42.820;23.374;2023-11-22T09:33:26;95297.44;;;10.46;77.56
77247;BME280;66279;42.820;23.374;2023-11-22T09:35:52;95295.75;;;10.27;78.07
77247;BME280;66279;42.820;23.374;2023-11-22T09:38:17;95290.22;;;10.35;77.71
77247;BME280;66279;42.820;23.374;2023-11-22T09:40:47;95294.72;;;10.28;78.77
77247;BME280;66279;42.820;23.374;2023-11-22T09:43:14;95294.19;;;10.12;79.49
77247;BME280;66279;42.820;23.374;2023-11-22T09:45:47;95299.47;;;10.12;79.88
77247;BME280;66279;42.820;23.374;2023-11-22T09:48:20;95297.44;;;10.14;79.43
77247;BME280;66279;42.820;23.374;2023-11-22T09:53:57;95300.84;;;10.28;78.80
77247;BME280;66279;42.820;23.374;2023-11-22T09:56:30;95304.94;;;10.49;77.67
77247;BME280;66279;42.820;23.374;2023-11-22T09:58:58;95296.16;;;10.24;78.38
77247;BME280;66279;42.820;23.374;2023-11-22T10:01:26;95296.59;;;10.21;79.21
77247;BME280;66279;42.820;23.374;2023-11-22T10:03:54;95267.97;;;10.11;78.76
77247;BME280;66279;42.820;23.374;2023-11-22T10:06:19;95284.44;;;10.13;79.13
77247;BME280;66279;42.820;23.374;2023-11-22T10:08:46;95295.56;;;10.22;79.29
77247;BME280;66279;42.820;23.374;2023-11-22T10:11:17;95293.56;;;10.17;79.13
77247;BME280;66279;42.820;23.374;2023-11-22T10:13:43;95289.00;;;10.31;78.60
77247;BME280;66279;42.820;23.374;2023-11-22T10:16:12;95285.19;;;10.27;78.39
77247;BME280;66279;42.820;23.374;2023-11-22T10:18:45;95276.81;;;10.30;78.12
77247;BME280;66279;42.820;23.374;2023-11-22T10:21:28;95281.38;;;10.16;79.50
77247;BME280;66279;42.820;23.374;2023-11-22T10:24:02;95270.97;;;10.14;79.46
77247;BME280;66279;42.820;23.374;2023-11-22T10:26:28;95279.34;;;10.11;79.58
77247;BME280;66279;42.820;23.374;2023-11-22T10:28:54;95256.16;;;10.13;78.47
77247;BME280;66279;42.820;23.374;2023-11-22T10:31:21;95270.09;;;10.27;78.05
77247;BME280;66279;42.820;23.374;2023-11-22T10:33:50;95290.66;;;10.25;78.98
77247;BME280;66279;42.820;23.374;2023-11-22T10:36:16;95289.78;;;10.38;78.16
77247;BME280;66279;42.820;23.374;2023-11-22T10:38:46;95290.47;;;10.27;78.65
77247;BME280;66279;42.820;23.374;2023-11-22T10:41:12;95284.03;;;10.09;79.18
77247;BME280;66279;42.820;23.374;2023-11-22T10:43:39;95298.00;;;10.23;78.95
77247;BME280;66279;42.820;23.374;2023-11-22T10:46:05;95301.13;;;10.13;79.75
77247;BME280;66279;42.820;23.374;2023-11-22T10:48:32;95307.31;;;10.32;78.61
77247;BME280;66279;42.820;23.374;2023-11-22T10:51:02;95301.06;;;10.20;79.34
77247;BME280;66279;42.820;23.374;2023-11-22T10:53:38;95293.88;;;10.34;77.84
77247;BME280;66279;42.820;23.374;2023-11-22T10:56:17;95296.16;;;10.24;78.43
77247;BME280;66279;42.820;23.374;2023-11-22T10:58:56;95303.06;;;10.25;78.67
77247;BME280;66279;42.820;23.374;2023-11-22T11:01:26;95307.09;;;10.34;78.45
77247;BME280;66279;42.820;23.374;2023-11-22T11:04:09;95305.13;;;10.23;78.91
77247;BME280;66279;42.820;23.374;2023-11-22T11:06:37;95304.25;;;10.35;78.25
77247;BME280;66279;42.820;23.374;2023-11-22T11:09:06;95308.75;;;10.35;78.45
77247;BME280;66279;42.820;23.374;2023-11-22T11:11:35;95310.69;;;10.46;77.65
77247;BME280;66279;42.820;23.374;2023-11-22T11:14:02;95295.13;;;10.25;78.50
77247;BME280;66279;42.820;23.374;2023-11-22T11:16:30;95308.78;;;10.28;78.45
77247;BME280;66279;42.820;23.374;2023-11-22T11:18:57;95306.34;;;10.27;78.82
77247;BME280;66279;42.820;23.374;2023-11-22T11:21:25;95304.56;;;10.14;79.07
77247;BME280;66279;42.820;23.374;2023-11-22T11:23:52;95276.94;;;10.10;78.62
77247;BME280;66279;42.820;23.374;2023-11-22T11:26:20;95310.00;;;10.26;78.55
77247;BME280;66279;42.820;23.374;2023-11-22T11:28:48;95306.72;;;10.30;78.46
77247;BME280;66279;42.820;23.374;2023-11-22T11:31:14;95303.38;;;10.10;79.44
77247;BME280;66279;42.820;23.374;2023-11-22T11:36:23;95307.47;;;10.06;79.69
77247;BME280;66279;42.820;23.374;2023-11-22T11:38:51;95306.41;;;10.13;79.51
77247;BME280;66279;42.820;23.374;2023-11-22T11:41:17;95305.38;;;10.14;79.10
77247;BME280;66279;42.820;23.374;2023-11-22T11:43:43;95311.84;;;10.19;79.30
77247;BME280;66279;42.820;23.374;2023-11-22T11:46:11;95312.63;;;10.26;78.67
77247;BME280;66279;42.820;23.374;2023-11-22T11:48:37;95310.41;;;10.23;78.73
77247;BME280;66279;42.820;23.374;2023-11-22T11:51:02;95306.03;;;10.10;79.37
77247;BME280;66279;42.820;23.374;2023-11-22T11:53:28;95299.31;;;10.07;79.50
77247;BME280;66279;42.820;23.374;2023-11-22T11:55:56;95305.19;;;10.09;79.22
77247;BME280;66279;42.820;23.374;2023-11-22T11:58:22;95306.44;;;10.07;79.72
77247;BME280;66279;42.820;23.374;2023-11-22T12:00:51;95294.66;;;10.03;79.56
77247;BME280;66279;42.820;23.374;2023-11-22T12:03:18;95306.88;;;10.04;79.76
77247;BME280;66279;42.820;23.374;2023-11-22T12:05:46;95313.13;;;10.16;79.20
77247;BME280;66279;42.820;23.374;2023-11-22T12:08:13;95311.09;;;10.11;79.40
77247;BME280;66279;42.820;23.374;2023-11-22T12:10:41;95314.53;;;10.12;79.44
77247;BME280;66279;42.820;23.374;2023-11-22T12:13:07;95312.84;;;10.24;78.89
77247;BME280;66279;42.820;23.374;2023-11-22T12:15:33;95311.69;;;10.13;79.36
77247;BME280;66279;42.820;23.374;2023-11-22T12:18:00;95318.41;;;10.09;79.37
77247;BME280;66279;42.820;23.374;2023-11-22T12:20:26;95319.84;;;10.12;79.34
77247;BME280;66279;42.820;23.374;2023-11-22T12:22:59;95327.56;;;10.13;79.13
77247;BME280;66279;42.820;23.374;2023-11-22T12:25:27;95322.84;;;10.15;79.01
77247;BME280;66279;42.820;23.374;2023-11-22T12:27:56;95325.69;;;10.21;78.94
77247;BME280;66279;42.820;23.374;2023-11-22T12:32:55;95324.34;;;10.05;79.29
77247;BME280;66279;42.820;23.374;2023-11-22T12:35:22;95328.31;;;9.89;80.01
77247;BME280;66279;42.820;23.374;2023-11-22T12:37:47;95325.81;;;9.94;79.92
77247;BME280;66279;42.820;23.374;2023-11-22T12:40:13;95327.84;;;9.99;79.33
77247;BME280;66279;42.820;23.374;2023-11-22T12:42:47;95310.66;;;9.83;79.66
77247;BME280;66279;42.820;23.374;2023-11-22T12:45:23;95331.97;;;9.88;79.73
77247;BME280;66279;42.820;23.374;2023-11-22T12:47:52;95339.47;;;9.91;79.79
77247;BME280;66279;42.820;23.374;2023-11-22T12:50:37;95342.53;;;9.88;79.66
77247;BME280;66279;42.820;23.374;2023-11-22T12:53:11;95349.66;;;9.87;80.01
77247;BME280;66279;42.820;23.374;2023-11-22T12:55:50;95348.41;;;9.97;79.52